• Join FlightAware (Why Join?)
  • Login
  • US Flag 
06:39AM EST


 

Airport Tracker/Info


-or-


 

Live Flight TrackerFlight Track Log ✈ SWA1035 ✈ 24-Apr-2013 ✈ KMCI - KABQ

Flight Track Log - Related Links

Times and Time Zones

All times are in EDT time to prevent confusion due to time zone crossing. See the SWA1035 flight status page for this flight to view local times or setup timezone preferences in your user account.

Time Position Orientation Groundspeed Altitude Reporting Facility
EDT Latitude Longitude Course Direction KTS MPH feet Rate Location/Type
02:27PM 39.2000 -94.7667 203° Southwest 220 253 5,200  Level Kansas City TRACON
02:27PM 39.1944 -94.7706 208° Southwest 215 247 5,600 3,000 Climbing Kansas City Center
02:28PM 39.1622 -94.8411 240° Southwest 257 296 9,200 3,000 Climbing Kansas City Center
02:29PM 39.1736 -94.9556 277° West 303 349 11,800 3,000 Climbing Kansas City Center
02:30PM 39.1844 -95.0697 277° West 333 383 15,400 3,540 Climbing Kansas City Center
02:31PM 39.1978 -95.2069 277° West 339 390 19,200 3,300 Climbing Kansas City Center
02:32PM 39.2100 -95.3281 277° West 341 392 22,300 2,760 Climbing Kansas City Center
02:33PM 39.2039 -95.4594 267° West 344 396 25,000 3,360 Climbing Kansas City Center
02:34PM 39.1800 -95.5758 255° West 333 383 29,200 3,360 Climbing Kansas City Center
02:35PM 39.1614 -95.6642 255° West 272 313 32,100 1,440 Climbing Kansas City Center
02:36PM 39.1356 -95.7800 254° West 307 353 32,300 540 Climbing Kansas City Center
02:37PM 39.1100 -95.8900 253° West 333 383 33,300 1,140 Climbing Kansas City Center
02:38PM 39.0856 -96.0022 254° West 338 389 34,700 1,260 Climbing Kansas City Center
02:39PM 39.0569 -96.1333 254° West 340 391 36,000 600 Climbing Kansas City Center
02:40PM 39.0317 -96.2433 254° West 336 387 36,000 540 Level Kansas City Center
02:41PM 39.0031 -96.3711 254° West 332 382 37,200 960 Climbing Kansas City Center
02:42PM 38.9728 -96.4922 252° West 335 386 38,000 360 Climbing Kansas City Center
02:43PM 38.9461 -96.6108 254° West 343 395 38,000  Level Kansas City Center
02:44PM 38.9197 -96.7300 254° West 346 398 38,000  Level Kansas City Center
02:45PM 38.8939 -96.8486 254° West 346 398 38,000  Level Kansas City Center
02:47PM 38.8669 -96.9639 253° West 340 391 38,000  Level Kansas City Center
02:48PM 38.8403 -97.0792 253° West 338 389 38,000  Level Kansas City Center
02:49PM 38.8078 -97.2167 253° West 336 387 38,000  Level Kansas City Center
02:50PM 38.7808 -97.3306 253° West 335 386 38,000 60 Level Kansas City Center
02:51PM 38.7539 -97.4442 253° West 335 386 38,200 600 Climbing Kansas City Center
02:52PM 38.7236 -97.5756 254° West 339 390 39,300 720 Climbing Kansas City Center
02:53PM 38.6983 -97.6775 252° West 346 398 39,700 300 Climbing Kansas City Center
02:54PM 38.6683 -97.7986 252° West 357 411 40,000 120 Climbing Kansas City Center
02:55PM 38.6339 -97.9458 253° West 361 415 40,000  Level Kansas City Center
02:56PM 38.6039 -98.0678 253° West 361 415 40,000  Level Kansas City Center
02:57PM 38.5739 -98.1894 253° West 361 415 40,000  Level Kansas City Center
02:58PM 38.5442 -98.3089 252° West 356 410 40,000  Level Kansas City Center
02:59PM 38.5147 -98.4283 253° West 355 409 40,000  Level Kansas City Center
03:00PM 38.4808 -98.5708 253° West 352 405 40,000  Level Kansas City Center
03:01PM 38.4419 -98.6850 247° West 352 405 40,000  Level Kansas City Center
03:02PM 38.4008 -98.7986 245° Southwest 354 407 40,000  Level Kansas City Center
03:03PM 38.3586 -98.9108 244° Southwest 353 406 40,000  Level Kansas City Center
03:04PM 38.3178 -99.0219 245° Southwest 349 402 40,000  Level Kansas City Center
03:05PM 38.2783 -99.1325 246° West 346 398 40,000  Level Kansas City Center
03:06PM 38.2300 -99.2644 245° Southwest 344 396 40,000  Level Kansas City Center
03:07PM 38.1911 -99.3742 246° West 342 394 40,000  Level Kansas City Center
03:08PM 38.1494 -99.4817 244° Southwest 341 392 40,000  Level Kansas City Center
03:09PM 38.1078 -99.5983 246° West 337 388 40,000  Level Kansas City Center
03:10PM 38.0700 -99.7006 245° Southwest 335 386 40,000  Level Kansas City Center
03:11PM 38.0250 -99.8200 244° Southwest 336 387 40,000  Level Kansas City Center
03:12PM 37.9878 -99.9208 245° Southwest 332 382 40,000  Level Kansas City Center
03:13PM 37.9431 -100.0378 244° Southwest 331 381 40,000  Level Kansas City Center
03:14PM 37.9056 -100.1392 245° Southwest 332 382 40,000  Level Kansas City Center
03:15PM 37.8606 -100.2572 244° Southwest 333 383 40,000  Level Kansas City Center
03:16PM 37.8214 -100.3589 244° Southwest 335 386 40,000  Level Kansas City Center
03:18PM 37.7831 -100.4594 244° Southwest 333 383 40,000  Level Kansas City Center
03:19PM 37.7411 -100.5692 244° Southwest 337 388 40,000  Level Kansas City Center
03:20PM 37.7006 -100.6747 244° Southwest 336 387 40,000  Level Kansas City Center
03:21PM 37.6514 -100.7997 244° Southwest 332 382 40,000  Level Kansas City Center
03:22PM 37.6086 -100.9100 244° Southwest 338 389 40,000  Level Kansas City Center
03:23PM 37.5689 -101.0131 244° Southwest 332 382 40,000  Level Kansas City Center
03:24PM 37.5278 -101.1181 244° Southwest 332 382 40,000  Level Kansas City Center
03:25PM 37.4861 -101.2261 244° Southwest 335 386 40,000  Level Kansas City Center
03:26PM 37.4397 -101.3444 244° Southwest 337 388 40,000  Level Kansas City Center
03:27PM 37.3994 -101.4456 243° Southwest 338 389 40,000  Level Kansas City Center
03:28PM 37.3519 -101.5647 243° Southwest 340 391 40,000  Level Kansas City Center
03:29PM 37.3117 -101.6678 244° Southwest 341 392 40,000  Level Kansas City Center
03:30PM 37.2647 -101.7867 244° Southwest 341 392 40,000  Level Kansas City Center
03:31PM 37.2228 -101.8894 243° Southwest 344 396 40,000  Level Kansas City Center
03:31PM 37.2022 -101.9408 243° Southwest 343 395 40,000  Level Albuquerque Center
03:32PM 37.1611 -102.0439 243° Southwest 345 397 40,000  Level Albuquerque Center
03:33PM 37.1142 -102.1644 244° Southwest 346 398 40,000  Level Albuquerque Center
03:34PM 37.0717 -102.2664 242° Southwest 345 397 40,000  Level Albuquerque Center
03:35PM 37.0242 -102.3875 244° Southwest 346 398 40,000  Level Albuquerque Center
03:37PM 36.9817 -102.4903 243° Southwest 349 402 40,000  Level Albuquerque Center
03:38PM 36.9325 -102.6097 243° Southwest 347 399 40,000  Level Albuquerque Center
03:39PM 36.8853 -102.7225 242° Southwest 350 403 40,000  Level Albuquerque Center
03:40PM 36.8419 -102.8344 244° Southwest 353 406 40,000  Level Albuquerque Center
03:41PM 36.7969 -102.9422 242° Southwest 350 403 40,000  Level Albuquerque Center
03:42PM 36.7508 -103.0519 242° Southwest 352 405 40,000  Level Albuquerque Center
03:43PM 36.7050 -103.1611 242° Southwest 354 407 40,000  Level Albuquerque Center
03:44PM 36.6597 -103.2714 243° Southwest 354 407 40,000  Level Albuquerque Center
03:45PM 36.6142 -103.3800 242° Southwest 351 404 40,000  Level Albuquerque Center
03:46PM 36.5614 -103.5053 242° Southwest 350 403 40,000  Level Albuquerque Center
03:47PM 36.5167 -103.6147 243° Southwest 351 404 40,000  Level Albuquerque Center
03:48PM 36.4708 -103.7225 242° Southwest 352 405 40,000  Level Albuquerque Center
03:49PM 36.4247 -103.8311 242° Southwest 352 405 40,000  Level Albuquerque Center
03:50PM 36.3786 -103.9408 242° Southwest 355 409 40,000  Level Albuquerque Center
03:51PM 36.3308 -104.0503 242° Southwest 358 412 40,000  Level Albuquerque Center
03:52PM 36.2828 -104.1619 242° Southwest 362 417 40,000  Level Albuquerque Center
03:53PM 36.2281 -104.2922 243° Southwest 364 419 40,000  Level Albuquerque Center
03:54PM 36.1800 -104.4019 242° Southwest 361 415 40,000  Level Albuquerque Center
03:55PM 36.1333 -104.5106 242° Southwest 358 412 40,000  Level Albuquerque Center
03:56PM 36.0864 -104.6189 242° Southwest 357 411 40,000  Level Albuquerque Center
03:57PM 36.0389 -104.7261 241° Southwest 355 409 40,000  Level Albuquerque Center
03:58PM 35.9928 -104.8314 242° Southwest 349 402 40,000  Level Albuquerque Center
03:59PM 35.9458 -104.9397 242° Southwest 353 406 40,000  Level Albuquerque Center
04:00PM 35.8911 -105.0647 242° Southwest 353 406 40,000  Level Albuquerque Center
04:01PM 35.8447 -105.1706 242° Southwest 350 403 40,000  Level Albuquerque Center
04:02PM 35.7964 -105.2772 241° Southwest 353 406 40,000 -300 Level Albuquerque Center
04:03PM 35.7486 -105.3825 241° Southwest 352 405 39,400 -1,500 Descending Albuquerque Center
04:04PM 35.7042 -105.4867 242° Southwest 345 397 37,000 -2,580 Descending Albuquerque Center
04:05PM 35.6911 -105.5989 262° West 339 390 34,200 -2,400 Descending Albuquerque Center
04:06PM 35.6806 -105.7108 263° West 334 384 32,200 -2,040 Descending Albuquerque Center
04:07PM 35.6689 -105.8217 263° West 330 380 30,100 -2,160 Descending Albuquerque Center
04:09PM 35.6564 -105.9539 263° West 325 374 27,800 -2,100 Descending Albuquerque Center
04:10PM 35.6469 -106.0600 264° West 317 365 25,800 -1,920 Descending Albuquerque Center
04:11PM 35.6356 -106.1639 262° West 311 358 23,900 -1,800 Descending Albuquerque Center
04:12PM 35.6269 -106.2678 264° West 308 354 22,100 -1,800 Descending Albuquerque Center
04:13PM 35.6169 -106.3692 263° West 302 348 20,300 -1,800 Descending Albuquerque Center
04:14PM 35.6058 -106.4706 262° West 301 346 18,500 -1,980 Descending Albuquerque Center
04:15PM 35.5778 -106.5836 253° West 305 351 16,300 -1,980 Descending Albuquerque Center
04:15PM 35.5194 -106.6172 205° Southwest 316 364 15,100 -1,260 Descending Albuquerque Center
04:16PM 35.4989 -106.6289 205° Southwest 312 359 15,000 -1,020 Descending Albuquerque Center
04:16PM 35.4453 -106.6572 203° Southwest 290 334 14,100 -1,260 Descending Albuquerque Center
04:17PM 35.4264 -106.6681 205° Southwest 295 339 13,700 -1,500 Descending Albuquerque Center
04:17PM 35.3728 -106.6942 202° Southwest 276 318 12,600 -1,500 Descending Albuquerque Center
04:18PM 35.3558 -106.7053 208° Southwest 280 322 12,200 -1,440 Descending Albuquerque Center
04:18PM 35.3086 -106.7292 202° Southwest 278 320 11,300 -1,500 Descending Albuquerque Center
04:19PM 35.2839 -106.7444 207° Southwest 281 323 10,700 -1,500 Descending Albuquerque Center
04:19PM 35.2369 -106.7708 205° Southwest 289 333 9,800 -1,260 Descending Albuquerque Center
04:20PM 35.2097 -106.7808 197° South 286 329 9,400 -1,140 Descending Albuquerque Center
04:20PM 35.1603 -106.7725 172° South 280 322 8,700 -1,380 Descending Albuquerque Center
04:21PM 35.1186 -106.7622 169° South 275 316 8,000 -720 Descending Albuquerque Center
04:21PM 35.0853 -106.7578 174° South 249 287 8,000  Level Albuquerque Center
04:22PM 35.0569 -106.7442 159° South 238 274 8,000 -540 Level Albuquerque Center
04:23PM 35.0408 -106.7225 132° Southeast 160 184 7,400 -1,500 Descending Albuquerque Center
04:23PM 35.0436 -106.6956 83° East 191 220 6,500 -1,320 Descending Albuquerque Center
04:23PM 35.0447 -106.6722 87° East 150 173 6,200 -780 Descending Albuquerque Center
04:24PM 35.0444 -106.6408 91° East 171 197 5,700 -540 Descending Albuquerque Center
04:25PM 35.0447 -106.5914 90° East 167 192 5,400 -300 Descending Albuquerque Center
04:27PM 35.0333 -106.6000 90° East  Level FlightAware Approximate